Time;durP1;ratioP1;P1;durP2;ratioP2;P2;SDS_P1;SDS_P2;PMS_P1;PMS_P2;Temp;Humidity;BMP_temperature;BMP_pressure;BME280_temperature;BME280_humidity;BME280_pressure;Samples;Min_cycle;Max_cycle;Signal;HPM_P1;HPM_P2
2022/04/17 00:00:48;;;;;;;;;;;;;;;14.22;100.00;100120.06;5077153;28;19928;-85
2022/04/17 00:03:15;;;;;;;;;;;;;;;14.19;100.00;100120.13;5060134;28;19928;-85
2022/04/17 00:05:42;;;;;;;;;;;;;;;14.21;100.00;100120.47;5077057;28;19924;-85
2022/04/17 00:08:09;;;;;;;;;;;;;;;14.21;100.00;100117.66;5060192;28;19924;-85
2022/04/17 00:10:37;;;;;;;;;;;;;;;13.99;100.00;100113.56;5076920;28;19923;-85
2022/04/17 00:13:04;;;;;;;;;;;;;;;14.16;100.00;100115.34;5076732;28;20291;-86
2022/04/17 00:15:32;;;;;;;;;;;;;;;13.93;100.00;100106.81;5058589;28;19924;-85
2022/04/17 00:17:59;;;;;;;;;;;;;;;13.69;100.00;100102.31;5076539;28;19924;-85
2022/04/17 00:20:26;;;;;;;;;;;;;;;13.65;100.00;100095.91;5060142;28;19924;-85
2022/04/17 00:22:53;;;;;;;;;;;;;;;13.36;100.00;100101.06;5076437;28;19930;-85
2022/04/17 00:25:20;;;;;;;;;;;;;;;13.57;100.00;100094.44;5060019;28;20294;-85
2022/04/17 00:27:48;;;;;;;;;;;;;;;13.46;100.00;100096.56;5094461;28;20035;-85
2022/04/17 00:30:15;;;;;;;;;;;;;;;13.26;100.00;100092.75;5076448;28;19928;-86
2022/04/17 00:32:42;;;;;;;;;;;;;;;13.20;100.00;100094.44;5059562;28;19924;-85
2022/04/17 00:35:10;;;;;;;;;;;;;;;13.46;100.00;100093.75;5059662;28;19930;-85
2022/04/17 00:37:37;;;;;;;;;;;;;;;13.53;100.00;100091.66;5094636;28;19924;-85
2022/04/17 00:40:05;;;;;;;;;;;;;;;13.62;100.00;100091.94;5059531;28;19962;-85
2022/04/17 00:42:32;;;;;;;;;;;;;;;13.27;100.00;100086.72;5076426;28;20371;-85
2022/04/17 00:44:59;;;;;;;;;;;;;;;13.32;100.00;100088.28;5043357;28;20004;-85
2022/04/17 00:47:26;;;;;;;;;;;;;;;13.47;100.00;100084.09;5059571;28;19924;-85
2022/04/17 00:49:53;;;;;;;;;;;;;;;13.56;100.00;100081.59;5076347;28;20343;-85
2022/04/17 00:52:20;;;;;;;;;;;;;;;13.62;100.00;100074.28;5076320;28;19924;-85
2022/04/17 00:54:48;;;;;;;;;;;;;;;13.45;100.00;100078.91;5094268;28;19974;-85
2022/04/17 00:57:16;;;;;;;;;;;;;;;13.19;100.00;100076.00;5076364;28;19924;-84
2022/04/17 00:59:44;;;;;;;;;;;;;;;13.24;100.00;100081.94;5042787;28;19924;-85
2022/04/17 01:02:12;;;;;;;;;;;;;;;13.44;100.00;100071.72;5075928;28;20633;-85
2022/04/17 01:04:40;;;;;;;;;;;;;;;13.06;100.00;100069.31;5093868;28;20022;-85
2022/04/17 01:07:08;;;;;;;;;;;;;;;13.21;100.00;100073.59;5076267;28;19924;-85
2022/04/17 01:09:35;;;;;;;;;;;;;;;13.11;100.00;100071.69;5075936;28;19924;-85
2022/04/17 01:12:03;;;;;;;;;;;;;;;13.29;100.00;100066.66;5094228;28;19959;-85
2022/04/17 01:14:31;;;;;;;;;;;;;;;13.35;100.00;100060.19;5076140;28;19924;-85
2022/04/17 01:16:58;;;;;;;;;;;;;;;13.09;100.00;100057.25;5076400;28;19924;-85
2022/04/17 01:19:27;;;;;;;;;;;;;;;13.26;100.00;100053.47;5042710;28;19947;-85
2022/04/17 01:21:54;;;;;;;;;;;;;;;12.91;100.00;100051.00;5059172;28;19970;-85
2022/04/17 01:27:08;;;;;;;;;;;;;;;12.85;100.00;100045.06;5075899;28;19924;-85
2022/04/17 01:29:39;;;;;;;;;;;;;;;13.01;100.00;100044.53;5075118;28;20333;-84
2022/04/17 01:32:09;;;;;;;;;;;;;;;13.09;100.00;100040.41;5093757;28;19957;-85
2022/04/17 01:34:38;;;;;;;;;;;;;;;13.04;100.00;100047.28;5109633;28;19924;-84
2022/04/17 01:37:05;;;;;;;;;;;;;;;13.05;100.00;100045.28;5042597;28;19930;-85
2022/04/17 01:39:32;;;;;;;;;;;;;;;12.82;100.00;100042.28;5075794;28;19931;-85
2022/04/17 01:42:00;;;;;;;;;;;;;;;12.96;100.00;100042.13;5093779;28;19994;-84
2022/04/17 01:44:28;;;;;;;;;;;;;;;13.05;100.00;100040.47;5093647;28;19928;-85
2022/04/17 01:46:56;;;;;;;;;;;;;;;13.16;100.00;100034.75;5093433;28;19924;-85
2022/04/17 01:49:26;;;;;;;;;;;;;;;13.15;100.00;100030.34;5059113;28;20286;-85
2022/04/17 01:51:53;;;;;;;;;;;;;;;13.02;100.00;100029.28;5076556;28;19931;-85
2022/04/17 01:54:21;;;;;;;;;;;;;;;12.31;100.00;100026.31;5079509;28;20010;-85
2022/04/17 01:56:49;;;;;;;;;;;;;;;12.40;100.00;100026.63;5096053;28;19931;-85
2022/04/17 01:59:17;;;;;;;;;;;;;;;12.53;100.00;100024.91;5079461;28;19947;-85
2022/04/17 02:01:45;;;;;;;;;;;;;;;12.44;100.00;100021.78;5096331;28;19924;-85
2022/04/17 02:04:12;;;;;;;;;;;;;;;12.49;100.00;100022.16;5063162;28;19924;-84
2022/04/17 02:06:39;;;;;;;;;;;;;;;12.50;100.00;100020.94;5062084;28;19951;-85
2022/04/17 02:09:09;;;;;;;;;;;;;;;12.54;100.00;100020.91;5059196;28;19976;-85
2022/04/17 02:11:36;;;;;;;;;;;;;;;12.58;100.00;100016.88;5058897;28;19924;-85
2022/04/17 02:14:04;;;;;;;;;;;;;;;11.98;100.00;100010.91;5059101;28;19960;-84
2022/04/17 02:16:31;;;;;;;;;;;;;;;12.11;100.00;100014.84;5042652;28;20499;-84
2022/04/17 02:19:00;;;;;;;;;;;;;;;12.22;100.00;100015.53;5059037;28;19924;-84
2022/04/17 02:21:28;;;;;;;;;;;;;;;12.23;100.00;100011.56;5042337;28;19924;-85
2022/04/17 02:23:55;;;;;;;;;;;;;;;12.22;100.00;100009.94;5076795;28;19925;-84
2022/04/17 02:26:22;;;;;;;;;;;;;;;12.22;100.00;100009.94;5075170;28;19932;-85
2022/04/17 02:28:49;;;;;;;;;;;;;;;12.22;100.00;100003.56;5058747;28;19978;-85
2022/04/17 02:31:17;;;;;;;;;;;;;;;11.57;100.00;100001.53;5059223;28;20414;-84
2022/04/17 02:33:44;;;;;;;;;;;;;;;11.70;100.00;100002.72;5025977;28;19924;-84
2022/04/17 02:36:11;;;;;;;;;;;;;;;11.32;100.00;99998.06;5058934;28;19924;-84
2022/04/17 02:38:38;;;;;;;;;;;;;;;11.30;100.00;99999.69;5076787;28;19924;-84
2022/04/17 02:41:06;;;;;;;;;;;;;;;11.49;100.00;99994.41;5058275;28;20403;-84
2022/04/17 02:43:33;;;;;;;;;;;;;;;11.68;100.00;99996.72;5041961;28;20389;-84
2022/04/17 02:46:00;;;;;;;;;;;;;;;11.62;100.00;99987.16;5074994;28;20390;-84
2022/04/17 02:48:28;;;;;;;;;;;;;;;11.35;100.00;99994.44;5058193;28;20272;-84
2022/04/17 02:50:57;;;;;;;;;;;;;;;11.25;100.00;99991.69;5041571;28;19924;-84
2022/04/17 02:53:25;;;;;;;;;;;;;;;11.18;100.00;99989.72;5041707;28;19925;-84
2022/04/17 02:55:52;;;;;;;;;;;;;;;11.26;100.00;99987.69;5058561;28;19967;-84
2022/04/17 02:58:19;;;;;;;;;;;;;;;11.38;100.00;99971.25;5075916;28;20042;-85
2022/04/17 03:06:17;;;;;;;;;;;;;;;11.38;100.00;99970.44;5058453;28;19924;-85
2022/04/17 03:08:44;;;;;;;;;;;;;;;11.10;100.00;99970.59;5074355;28;19924;-84
2022/04/17 03:11:11;;;;;;;;;;;;;;;11.25;100.00;99970.13;5063643;28;19925;-84
2022/04/17 03:13:39;;;;;;;;;;;;;;;10.64;100.00;99965.94;5070850;28;19924;-84
2022/04/17 03:16:08;;;;;;;;;;;;;;;10.83;100.00;99964.66;5085374;28;20378;-84
2022/04/17 03:18:35;;;;;;;;;;;;;;;10.93;100.00;99966.66;5078022;28;19931;-84
2022/04/17 03:21:03;;;;;;;;;;;;;;;11.02;100.00;99969.00;5078151;28;19924;-84
2022/04/17 03:23:30;;;;;;;;;;;;;;;11.04;100.00;99967.41;5095932;28;20027;-84
2022/04/17 03:25:57;;;;;;;;;;;;;;;11.04;100.00;99956.22;5077637;28;20428;-85
2022/04/17 03:28:24;;;;;;;;;;;;;;;10.99;100.00;99959.44;5060650;28;20383;-85
2022/04/17 03:30:52;;;;;;;;;;;;;;;11.00;100.00;99949.84;5077830;28;19958;-85
2022/04/17 03:33:19;;;;;;;;;;;;;;;11.04;100.00;99950.63;5061042;28;20380;-85
2022/04/17 03:35:46;;;;;;;;;;;;;;;10.90;100.00;99950.69;5077568;28;20376;-84
2022/04/17 03:38:13;;;;;;;;;;;;;;;10.05;100.00;99940.81;5095265;28;20386;-84
2022/04/17 03:40:40;;;;;;;;;;;;;;;10.27;100.00;99946.00;5077552;28;20351;-84
2022/04/17 03:43:09;;;;;;;;;;;;;;;10.58;100.00;99945.19;5061219;28;19924;-84
2022/04/17 03:45:37;;;;;;;;;;;;;;;10.66;100.00;99940.38;5094407;28;19931;-84
2022/04/17 03:48:05;;;;;;;;;;;;;;;10.54;100.00;99932.41;5095429;28;19949;-84
2022/04/17 03:50:32;;;;;;;;;;;;;;;10.46;100.00;99930.81;5095289;28;19924;-84
2022/04/17 03:53:00;;;;;;;;;;;;;;;10.67;100.00;99925.19;5095301;28;20347;-84
2022/04/17 03:55:27;;;;;;;;;;;;;;;10.48;100.00;99923.63;5093902;28;20010;-83
2022/04/17 03:57:55;;;;;;;;;;;;;;;10.40;100.00;99924.88;5044063;28;20364;-83
2022/04/17 04:00:23;;;;;;;;;;;;;;;10.29;100.00;99923.25;5060793;28;20291;-83
2022/04/17 04:02:51;;;;;;;;;;;;;;;10.07;100.00;99918.91;5095122;28;19954;-83
2022/04/17 04:05:19;;;;;;;;;;;;;;;10.24;100.00;99916.09;5093788;28;19924;-83
2022/04/17 04:07:47;;;;;;;;;;;;;;;10.28;100.00;99918.88;5077462;28;19932;-83
2022/04/17 04:10:16;;;;;;;;;;;;;;;10.29;100.00;99914.88;5094735;28;20024;-82
2022/04/17 04:12:43;;;;;;;;;;;;;;;10.29;100.00;99909.28;5094744;28;19924;-83
2022/04/17 04:15:10;;;;;;;;;;;;;;;10.29;100.00;99910.09;5059491;28;19924;-83
2022/04/17 04:17:37;;;;;;;;;;;;;;;10.33;100.00;99910.88;5077090;28;19930;-83
2022/04/17 04:20:05;;;;;;;;;;;;;;;9.91;100.00;99905.31;5076886;28;19951;-83
2022/04/17 04:22:32;;;;;;;;;;;;;;;10.00;100.00;99907.69;5094478;28;19924;-83
2022/04/17 04:24:59;;;;;;;;;;;;;;;9.78;100.00;99918.09;5094338;28;20379;-83
2022/04/17 04:30:12;;;;;;;;;;;;;;;9.20;100.00;99914.78;5094150;28;19924;-82
2022/04/17 04:32:52;;;;;;;;;;;;;;;9.71;100.00;99906.88;5073719;28;19924;-83
2022/04/17 04:35:19;;;;;;;;;;;;;;;9.87;100.00;99906.50;5040189;28;19931;-83
2022/04/17 04:37:46;;;;;;;;;;;;;;;9.71;100.00;99906.88;5056238;28;19972;-83
2022/04/17 04:40:14;;;;;;;;;;;;;;;9.50;100.00;99901.28;5056391;28;19954;-83
2022/04/17 04:42:42;;;;;;;;;;;;;;;9.34;100.00;99905.66;5056651;28;20475;-83
2022/04/17 04:47:54;;;;;;;;;;;;;;;9.43;100.00;99897.69;5073168;28;19931;-82
2022/04/17 04:50:21;;;;;;;;;;;;;;;9.60;100.00;99894.13;5055918;28;19995;-83
2022/04/17 04:52:48;;;;;;;;;;;;;;;9.70;100.00;99893.34;5089483;28;19924;-83
2022/04/17 04:55:15;;;;;;;;;;;;;;;9.61;100.00;99890.13;5055896;28;19978;-83
2022/04/17 04:57:42;;;;;;;;;;;;;;;9.49;100.00;99896.91;5039558;28;19924;-83
2022/04/17 05:00:09;;;;;;;;;;;;;;;9.02;100.00;99891.63;5055944;28;19925;-83
2022/04/17 05:02:37;;;;;;;;;;;;;;;9.39;100.00;99888.53;5072845;28;19924;-82
2022/04/17 05:05:05;;;;;;;;;;;;;;;9.45;100.00;99881.38;5039101;28;19925;-82
2022/04/17 05:07:33;;;;;;;;;;;;;;;9.51;100.00;99886.13;5072672;28;19924;-83
2022/04/17 05:10:00;;;;;;;;;;;;;;;9.56;100.00;99882.97;5064202;28;19969;-82
2022/04/17 05:12:30;;;;;;;;;;;;;;;9.64;100.00;99878.19;5085132;28;20399;-82
2022/04/17 05:14:57;;;;;;;;;;;;;;;9.35;100.00;99876.56;5074076;28;20013;-83
2022/04/17 05:17:24;;;;;;;;;;;;;;;9.09;100.00;99878.50;5056215;28;19925;-83
2022/04/17 05:19:51;;;;;;;;;;;;;;;9.47;100.00;99876.97;5039119;28;19934;-82
2022/04/17 05:22:20;;;;;;;;;;;;;;;9.11;100.00;99873.34;5055717;28;20387;-82
2022/04/17 05:24:47;;;;;;;;;;;;;;;9.51;100.00;99874.19;5072355;28;19932;-82
2022/04/17 05:27:14;;;;;;;;;;;;;;;9.60;100.00;99882.97;5057531;28;20031;-82
2022/04/17 05:29:42;;;;;;;;;;;;;;;9.53;100.00;99877.38;5028797;28;19928;-82
2022/04/17 05:32:09;;;;;;;;;;;;;;;9.40;100.00;99867.81;5063249;28;19959;-82
2022/04/17 05:34:38;;;;;;;;;;;;;;;9.41;100.00;99874.97;5063252;28;19924;-82
2022/04/17 05:37:05;;;;;;;;;;;;;;;9.61;100.00;99863.06;5113423;28;19974;-82
2022/04/17 05:39:32;;;;;;;;;;;;;;;9.63;100.00;99865.44;5113642;28;19927;-82
2022/04/17 05:42:00;;;;;;;;;;;;;;;9.52;100.00;99861.84;5079495;28;20375;-82
2022/04/17 05:44:27;;;;;;;;;;;;;;;9.83;100.00;99858.28;5097630;28;19931;-82
2022/04/17 05:46:54;;;;;;;;;;;;;;;9.85;100.00;99855.84;5079806;28;19924;-82
2022/04/17 05:49:22;;;;;;;;;;;;;;;9.59;100.00;99853.50;5078598;28;19927;-82
2022/04/17 05:51:49;;;;;;;;;;;;;;;9.34;100.00;99864.63;5054798;28;19931;-82
2022/04/17 05:54:16;;;;;;;;;;;;;;;9.69;100.00;99861.06;5086681;28;20272;-82
2022/04/17 05:56:44;;;;;;;;;;;;;;;9.87;100.00;99859.06;5089721;28;19924;-82
2022/04/17 05:59:11;;;;;;;;;;;;;;;9.65;100.00;99868.63;5096425;28;19924;-82
2022/04/17 06:01:38;;;;;;;;;;;;;;;9.04;100.00;99866.94;5079472;28;19978;-83
2022/04/17 06:04:05;;;;;;;;;;;;;;;9.60;100.00;99867.03;5095825;28;19931;-82
2022/04/17 06:06:32;;;;;;;;;;;;;;;10.05;100.00;99859.84;5079109;28;19931;-82
2022/04/17 06:09:00;;;;;;;;;;;;;;;10.32;100.00;99858.22;5097407;28;19931;-82
2022/04/17 06:11:27;;;;;;;;;;;;;;;10.43;100.00;99857.00;5090125;28;19924;-81
2022/04/17 06:13:55;;;;;;;;;;;;;;;10.63;100.00;99846.16;5079140;28;19931;-81
2022/04/17 06:16:22;;;;;;;;;;;;;;;10.57;100.00;99851.34;5079426;28;19971;-82
2022/04/17 06:18:49;;;;;;;;;;;;;;;10.76;100.00;99850.88;5097064;28;19924;-81
2022/04/17 06:21:18;;;;;;;;;;;;;;;10.89;100.00;99852.00;5097117;28;19925;-81
2022/04/17 06:23:45;;;;;;;;;;;;;;;11.03;100.00;99847.56;5096849;28;19970;-82
2022/04/17 06:26:12;;;;;;;;;;;;;;;11.24;100.00;99851.03;5078989;28;20294;-82
2022/04/17 06:28:39;;;;;;;;;;;;;;;11.35;100.00;99850.94;5095044;28;19964;-82
2022/04/17 06:31:07;;;;;;;;;;;;;;;11.54;100.00;99854.00;5051240;28;19928;-81
2022/04/17 06:33:34;;;;;;;;;;;;;;;11.54;100.00;99845.59;5092490;28;19924;-82
2022/04/17 06:36:02;;;;;;;;;;;;;;;11.73;100.00;99842.31;5078970;28;19935;-82
2022/04/17 06:38:29;;;;;;;;;;;;;;;11.47;100.00;99840.06;5095501;28;19924;-81
2022/04/17 06:40:56;;;;;;;;;;;;;;;12.04;100.00;99823.63;5078719;28;19964;-82
2022/04/17 06:43:24;;;;;;;;;;;;;;;12.47;100.00;99833.97;5062013;28;20378;-82
2022/04/17 06:45:51;;;;;;;;;;;;;;;12.73;100.00;99816.44;5078951;28;19960;-82
2022/04/17 06:48:20;;;;;;;;;;;;;;;12.78;100.00;99824.34;5078445;28;19932;-81
2022/04/17 06:50:48;;;;;;;;;;;;;;;13.22;100.00;99831.03;5096699;28;19924;-81
2022/04/17 06:53:15;;;;;;;;;;;;;;;13.41;100.00;99822.72;5077723;28;19924;-81
2022/04/17 06:55:42;;;;;;;;;;;;;;;13.56;100.00;99810.03;5112397;28;19928;-82
2022/04/17 06:58:09;;;;;;;;;;;;;;;13.65;100.00;99801.06;5048939;28;19925;-83
2022/04/17 07:00:37;;;;;;;;;;;;;;;14.07;100.00;99806.72;5054370;28;19924;-82
2022/04/17 07:03:04;;;;;;;;;;;;;;;14.66;100.00;99801.19;5075412;28;19958;-82
2022/04/17 07:05:31;;;;;;;;;;;;;;;14.82;100.00;99792.81;5093985;28;19970;-82
2022/04/17 07:07:59;;;;;;;;;;;;;;;14.79;100.00;99793.69;5058682;28;19930;-82
2022/04/17 07:10:27;;;;;;;;;;;;;;;14.66;100.00;99789.91;5090598;28;19924;-82
2022/04/17 07:12:54;;;;;;;;;;;;;;;14.51;100.00;99785.03;5075716;28;19925;-82
2022/04/17 07:15:22;;;;;;;;;;;;;;;14.11;100.00;99784.19;5044551;28;19950;-82
2022/04/17 07:17:50;;;;;;;;;;;;;;;14.47;100.00;99787.91;5074572;28;19924;-78
2022/04/17 07:20:17;;;;;;;;;;;;;;;14.73;100.00;99775.72;5085257;28;19925;-86
2022/04/17 07:22:45;;;;;;;;;;;;;;;15.13;100.00;99774.41;5077061;28;20371;-85
2022/04/17 07:25:14;;;;;;;;;;;;;;;15.62;100.00;99776.06;5077935;28;20371;-85
2022/04/17 07:27:45;;;;;;;;;;;;;;;16.55;100.00;99766.75;5094807;28;19935;-85
2022/04/17 07:30:13;;;;;;;;;;;;;;;17.13;100.00;99766.16;5071910;28;19924;-85
2022/04/17 07:32:41;;;;;;;;;;;;;;;17.69;100.00;99755.09;5041006;28;19928;-88
2022/04/17 07:38:22;;;;;;;;;;;;;;;17.72;100.00;99745.72;5097342;28;19934;-88
2022/04/17 07:45:20;;;;;;;;;;;;;;;18.73;100.00;99741.22;5079854;28;19927;-85
2022/04/17 07:47:54;;;;;;;;;;;;;;;19.22;100.00;99733.59;5078032;28;19924;-88
2022/04/17 07:50:31;;;;;;;;;;;;;;;19.48;100.00;99729.31;5059115;28;19924;-91
2022/04/17 07:56:28;;;;;;;;;;;;;;;19.41;100.00;99720.31;5067758;28;19932;-84
2022/04/17 07:58:56;;;;;;;;;;;;;;;19.65;100.00;99716.47;5082135;28;19924;-83
2022/04/17 08:01:23;;;;;;;;;;;;;;;19.66;100.00;99715.19;5065039;28;20380;-84
2022/04/17 08:03:50;;;;;;;;;;;;;;;19.94;100.00;99712.38;5071315;28;19925;-83
2022/04/17 08:06:21;;;;;;;;;;;;;;;18.63;100.00;99708.44;5057146;28;19931;-83
2022/04/17 08:08:50;;;;;;;;;;;;;;;18.77;100.00;99707.09;5048568;28;19925;-82
2022/04/17 08:11:18;;;;;;;;;;;;;;;17.64;100.00;99701.97;5056923;28;19924;-84
2022/04/17 08:13:46;;;;;;;;;;;;;;;17.71;100.00;99708.16;5074654;28;19928;-81
2022/04/17 08:16:13;;;;;;;;;;;;;;;18.12;100.00;99698.63;5073000;28;19924;-83
2022/04/17 08:18:41;;;;;;;;;;;;;;;18.38;100.00;99700.13;5056755;28;19929;-84
2022/04/17 08:21:09;;;;;;;;;;;;;;;18.76;100.00;99691.38;5072481;28;19932;-84
2022/04/17 08:24:04;;;;;;;;;;;;;;;20.27;100.00;99693.50;5084606;28;20398;-84
2022/04/17 08:26:33;;;;;;;;;;;;;;;19.71;100.00;99682.59;5054765;28;19924;-82
2022/04/17 08:29:00;;;;;;;;;;;;;;;20.67;100.00;99685.56;5058549;28;19924;-87
2022/04/17 08:31:28;;;;;;;;;;;;;;;21.35;100.00;99679.00;5039352;28;19928;-86
2022/04/17 08:33:55;;;;;;;;;;;;;;;21.94;100.00;99674.38;5062293;28;19932;-84
2022/04/17 08:36:22;;;;;;;;;;;;;;;22.01;100.00;99665.47;5055350;28;20174;-84
2022/04/17 08:38:51;;;;;;;;;;;;;;;20.68;100.00;99662.38;5054653;28;19931;-88
2022/04/17 08:41:20;;;;;;;;;;;;;;;21.12;100.00;99666.34;5070657;28;19978;-86
2022/04/17 08:43:50;;;;;;;;;;;;;;;21.24;100.00;99673.06;5052640;28;20376;-84
2022/04/17 08:46:18;;;;;;;;;;;;;;;21.32;100.00;99660.06;5065339;28;19925;-83
2022/04/17 08:48:45;;;;;;;;;;;;;;;20.54;100.00;99662.25;5057710;28;19974;-83
2022/04/17 08:51:13;;;;;;;;;;;;;;;20.09;100.00;99656.59;5072815;28;19967;-84
2022/04/17 08:53:40;;;;;;;;;;;;;;;19.78;100.00;99661.66;5090541;28;19979;-84
2022/04/17 08:56:07;;;;;;;;;;;;;;;18.53;100.00;99670.03;5092158;28;19932;-88
2022/04/17 08:58:34;;;;;;;;;;;;;;;19.37;100.00;99663.78;5098218;28;19924;-85
2022/04/17 09:01:02;;;;;;;;;;;;;;;20.58;100.00;99662.88;5066433;28;19924;-87
2022/04/17 09:03:30;;;;;;;;;;;;;;;20.07;100.00;99642.13;5051167;28;20408;-85
2022/04/17 09:05:57;;;;;;;;;;;;;;;19.80;100.00;99639.28;5077921;28;19924;-86
2022/04/17 09:08:24;;;;;;;;;;;;;;;19.60;100.00;99646.19;5078157;28;19925;-84
2022/04/17 09:10:59;;;;;;;;;;;;;;;19.83;100.00;99636.28;5076129;28;19931;-85
2022/04/17 09:14:19;;;;;;;;;;;;;;;18.87;100.00;99630.25;5015022;28;19931;-84
2022/04/17 09:17:21;;;;;;;;;;;;;;;;;;;;;
2022/04/17 09:20:24;;;;;;;;;;;;;;;19.30;100.00;99624.44;5010814;28;19924;-86
2022/04/17 09:22:52;;;;;;;;;;;;;;;18.75;100.00;99619.03;5011957;28;20470;-86
2022/04/17 09:25:23;;;;;;;;;;;;;;;18.89;100.00;99622.06;4995368;28;20332;-85
2022/04/17 09:27:57;;;;;;;;;;;;;;;19.52;100.00;99608.06;4979215;28;19929;-86
2022/04/17 09:30:34;;;;;;;;;;;;;;;18.31;100.00;99609.03;4980269;28;20430;-86
2022/04/17 09:33:05;;;;;;;;;;;;;;;18.52;100.00;99614.69;5038879;28;19973;-84
2022/04/17 09:35:33;;;;;;;;;;;;;;;18.85;100.00;99593.13;5084240;28;19928;-85
2022/04/17 09:38:05;;;;;;;;;;;;;;;18.67;100.00;99601.56;5089152;28;19932;-87
2022/04/17 09:41:58;;;;;;;;;;;;;;;18.59;100.00;99590.97;5066088;28;20447;-86
2022/04/17 09:44:47;;;;;;;;;;;;;;;19.35;100.00;99581.31;5075218;28;20959;-83
2022/04/17 09:47:18;;;;;;;;;;;;;;;18.07;100.00;99571.97;5075577;28;20294;-85
2022/04/17 09:50:07;;;;;;;;;;;;;;;17.87;100.00;99575.13;5062080;28;19924;-85
2022/04/17 09:52:45;;;;;;;;;;;;;;;18.78;100.00;99565.09;5077811;28;19925;-84
2022/04/17 09:55:13;;;;;;;;;;;;;;;19.17;100.00;99563.47;5090903;28;19928;-84
2022/04/17 09:57:41;;;;;;;;;;;;;;;18.91;100.00;99557.28;5040487;28;20026;-86
2022/04/17 10:00:10;;;;;;;;;;;;;;;18.13;100.00;99546.72;5073352;28;19925;-86
2022/04/17 10:02:38;;;;;;;;;;;;;;;18.25;100.00;99549.44;5070809;28;19936;-86
2022/04/17 10:05:07;;;;;;;;;;;;;;;19.12;100.00;99545.06;5037515;28;20314;-87
2022/04/17 10:07:38;;;;;;;;;;;;;;;18.72;100.00;99538.66;5053464;28;19925;-87
2022/04/17 10:10:06;;;;;;;;;;;;;;;17.56;100.00;99548.06;5071068;28;19932;-88
2022/04/17 10:12:35;;;;;;;;;;;;;;;18.75;100.00;99542.63;5084677;28;20015;-87
2022/04/17 10:15:05;;;;;;;;;;;;;;;19.40;100.00;99538.16;5092065;28;19925;-86
2022/04/17 10:17:34;;;;;;;;;;;;;;;19.44;100.00;99521.03;5086819;28;20379;-87
2022/04/17 10:20:04;;;;;;;;;;;;;;;19.00;100.00;99528.97;5098064;28;19939;-88
2022/04/17 10:22:36;;;;;;;;;;;;;;;18.56;100.00;99533.25;5085530;28;19931;-87
2022/04/17 10:25:04;;;;;;;;;;;;;;;18.33;100.00;99532.97;5073904;28;19934;-85
2022/04/17 10:27:51;;;;;;;;;;;;;;;18.94;100.00;99530.06;5075173;28;20366;-87
2022/04/17 10:30:24;;;;;;;;;;;;;;;19.63;100.00;99536.75;5059145;28;20015;-87
2022/04/17 10:33:16;;;;;;;;;;;;;;;19.68;100.00;99519.91;5076613;28;19957;-86
2022/04/17 10:35:49;;;;;;;;;;;;;;;18.96;100.00;99504.91;5059319;28;19928;-87
2022/04/17 10:38:26;;;;;;;;;;;;;;;18.34;100.00;99514.75;5108279;28;20451;-89
2022/04/17 10:40:59;;;;;;;;;;;;;;;18.87;100.00;99505.66;5058897;28;19928;-87
2022/04/17 10:43:54;;;;;;;;;;;;;;;19.38;100.00;99495.38;5059536;28;20397;-88
2022/04/17 10:46:21;;;;;;;;;;;;;;;19.49;100.00;99484.31;5059136;28;19924;-89
2022/04/17 10:48:51;;;;;;;;;;;;;;;18.75;100.00;99491.66;5059005;28;19947;-86
2022/04/17 10:51:26;;;;;;;;;;;;;;;18.57;100.00;99489.56;5112472;28;20367;-87
2022/04/17 10:54:19;;;;;;;;;;;;;;;18.94;100.00;99481.94;5077170;28;19928;-87
2022/04/17 10:56:55;;;;;;;;;;;;;;;19.35;100.00;99490.66;5091007;28;19986;-86
2022/04/17 10:59:28;;;;;;;;;;;;;;;18.78;100.00;99476.56;5075392;28;19969;-87
2022/04/17 11:02:02;;;;;;;;;;;;;;;18.92;100.00;99468.25;5093595;28;19924;-85
2022/04/17 11:04:50;;;;;;;;;;;;;;;18.18;100.00;99453.56;5075919;28;20379;-88
2022/04/17 11:07:17;;;;;;;;;;;;;;;19.10;100.00;99462.59;5077274;28;19938;-94
2022/04/17 11:09:46;;;;;;;;;;;;;;;17.67;100.00;99464.47;5027989;28;19983;-82
2022/04/17 11:12:19;;;;;;;;;;;;;;;18.07;100.00;99461.69;5078097;28;20313;-81
2022/04/17 11:14:57;;;;;;;;;;;;;;;17.97;100.00;99468.56;5078332;28;19924;-85
2022/04/17 11:17:24;;;;;;;;;;;;;;;19.43;100.00;99438.03;5061500;28;20482;-89
2022/04/17 11:19:52;;;;;;;;;;;;;;;19.13;100.00;99443.88;5061452;28;19924;-88
2022/04/17 11:22:25;;;;;;;;;;;;;;;18.71;100.00;99445.72;5060622;28;19924;-85
2022/04/17 11:24:55;;;;;;;;;;;;;;;19.42;100.00;99438.50;5056676;28;19947;-86
2022/04/17 11:27:41;;;;;;;;;;;;;;;18.19;100.00;99443.06;5057962;28;20327;-89
2022/04/17 11:30:19;;;;;;;;;;;;;;;17.60;100.00;99438.50;5060671;28;19924;-82
2022/04/17 11:32:49;;;;;;;;;;;;;;;18.12;100.00;99455.44;5059161;28;19925;-82
2022/04/17 11:35:24;;;;;;;;;;;;;;;18.32;100.00;99430.38;5042277;28;20041;-81
2022/04/17 11:37:53;;;;;;;;;;;;;;;17.80;100.00;99427.63;5074881;28;19924;-90
2022/04/17 11:40:23;;;;;;;;;;;;;;;18.59;100.00;99433.28;5058367;28;19924;-92
2022/04/17 11:42:52;;;;;;;;;;;;;;;18.24;100.00;99431.91;5074980;28;19925;-94
2022/04/17 11:45:25;;;;;;;;;;;;;;;17.24;100.00;99430.56;5041387;28;19924;-91
2022/04/17 11:47:54;;;;;;;;;;;;;;;17.33;100.00;99418.53;5040115;28;19964;-92
2022/04/17 11:50:27;;;;;;;;;;;;;;;18.45;100.00;99419.72;5073046;28;20312;-91
2022/04/17 11:52:56;;;;;;;;;;;;;;;18.06;100.00;99406.38;5072348;28;19978;-91
2022/04/17 11:55:26;;;;;;;;;;;;;;;18.88;100.00;99410.19;5023181;28;19929;-91
2022/04/17 11:57:55;;;;;;;;;;;;;;;17.99;100.00;99418.00;5024284;28;19928;-91
2022/04/17 12:00:23;;;;;;;;;;;;;;;18.60;100.00;99417.88;5056857;28;20426;-91
2022/04/17 12:02:54;;;;;;;;;;;;;;;18.97;100.00;99402.50;5040488;28;20375;-90
2022/04/17 12:05:21;;;;;;;;;;;;;;;19.14;100.00;99391.63;5039914;28;19925;-92
2022/04/17 12:07:56;;;;;;;;;;;;;;;19.05;100.00;99392.41;5023340;28;19924;-90
2022/04/17 12:10:23;;;;;;;;;;;;;;;18.08;100.00;99389.75;5073302;28;19924;-93
2022/04/17 12:12:50;;;;;;;;;;;;;;;18.57;100.00;99387.69;5039788;28;20283;-90
2022/04/17 12:15:17;;;;;;;;;;;;;;;19.40;100.00;99375.88;5023144;28;20386;-92
2022/04/17 12:17:44;;;;;;;;;;;;;;;19.21;100.00;99365.81;5056510;28;19971;-91
2022/04/17 12:20:13;;;;;;;;;;;;;;;19.42;100.00;99370.50;5056093;28;19968;-90
2022/04/17 12:22:41;;;;;;;;;;;;;;;18.39;100.00;99370.69;5073150;28;19932;-90
2022/04/17 12:25:19;;;;;;;;;;;;;;;19.17;100.00;99377.31;5073338;28;20371;-92
2022/04/17 12:27:47;;;;;;;;;;;;;;;19.52;100.00;99378.50;5023791;28;20013;-90
2022/04/17 12:30:19;;;;;;;;;;;;;;;19.68;100.00;99375.34;5056406;28;20280;-90
2022/04/17 12:32:46;;;;;;;;;;;;;;;20.12;100.00;99360.63;5056206;28;19924;-90
2022/04/17 12:35:21;;;;;;;;;;;;;;;19.76;100.00;99358.75;5056236;28;19929;-90
2022/04/17 12:37:49;;;;;;;;;;;;;;;19.92;100.00;99338.50;5055146;28;19924;-92
2022/04/17 12:40:20;;;;;;;;;;;;;;;20.48;100.00;99346.25;5039295;28;19931;-92
2022/04/17 12:42:48;;;;;;;;;;;;;;;20.23;100.00;99329.72;5040034;28;20387;-91
2022/04/17 12:45:26;;;;;;;;;;;;;;;19.91;100.00;99321.97;5040311;28;19924;-92
2022/04/17 12:48:20;;;;;;;;;;;;;;;20.70;100.00;99327.63;5039625;28;20023;-91
2022/04/17 12:50:54;;;;;;;;;;;;;;;20.37;100.00;99321.25;5020368;28;20035;-91
2022/04/17 12:53:21;;;;;;;;;;;;;;;20.59;100.00;99312.41;5039405;28;19931;-90
2022/04/17 12:55:51;;;;;;;;;;;;;;;20.59;100.00;99316.06;5073472;28;20394;-91
2022/04/17 12:58:18;;;;;;;;;;;;;;;19.78;100.00;99307.25;5039736;28;20365;-92
2022/04/17 13:00:54;;;;;;;;;;;;;;;19.47;100.00;99304.69;5072884;28;19931;-91
2022/04/17 13:03:23;;;;;;;;;;;;;;;19.37;100.00;99295.44;5039196;28;20022;-92
2022/04/17 13:05:59;;;;;;;;;;;;;;;18.83;100.00;99281.38;5039229;28;19924;-93
2022/04/17 13:08:27;;;;;;;;;;;;;;;19.62;100.00;99312.03;5023282;28;20023;-91
2022/04/17 13:10:54;;;;;;;;;;;;;;;19.21;100.00;99292.16;5072938;28;19928;-91
2022/04/17 13:13:37;;;;;;;;;;;;;;;19.35;100.00;99298.00;5056620;28;19925;-90
2022/04/17 13:16:05;;;;;;;;;;;;;;;19.67;100.00;99288.69;5056197;28;19928;-92